Paro, Bhutan
Current Conditions -  °F | °C
As of 1:50 PM on Tuesday 27 Jan 2015 (Local Time) from VNKT Reporting Station
Broken Clouds Broken Clouds  
Wind Chill: 66°   Ceiling: 10000
Heat Index: 66°   Visibility: 5mi
Dew Point: 37°   Wind: 9mph
Humidity: 35%   Direction: 300°WNW
Pressure: 30.12"   Gusts: NA
Location:  27.51°N, 89.36°E
Report Text: VNKT 270750Z 30008KT 8000 FEW020 BKN100 19/03 Q1020 NOSIG
Loading
Personal Weather Stations






























Interactive Weather Map New forecast layout! Learn more

10-Day Weather Forecast

Advertisements
Track Severe Weather on mobile